Terminal Aerodrome Forecast
Issued by NWS

Home | Current Version | Previous Version | Graphics & Text | Print | Product List | Glossary On
Versions: 1 2 3 4 5 6 7 8 9 10 11 12 13 14 15 16 17 18 19 20 21 22
000
FTUS43 KBIS 191700
TAFJMS
TAF
KJMS 191731Z 1918/2018 19009KT 5SM BR OVC005
     FM200300 18006KT P6SM FEW003 SCT100
     FM200600 VRB03KT 4SM BR OVC005=

USA.gov is the U.S. government's official web portal to all federal, state and local government web resources and services.